createdAt,value
2023-01-31T00:03:14.379Z,4.30
2023-01-31T00:08:16.267Z,4.30
2023-01-31T00:13:18.383Z,4.30
2023-01-31T00:18:20.165Z,4.20
2023-01-31T00:23:21.946Z,4.20
2023-01-31T00:28:33.096Z,4.20
2023-01-31T00:33:36.039Z,4.20
2023-01-31T00:38:38.877Z,4.20
2023-01-31T00:43:40.731Z,4.20
2023-01-31T00:48:42.879Z,4.10
2023-01-31T00:53:44.767Z,4.00
2023-01-31T00:58:46.571Z,4.00
2023-01-31T01:03:51.079Z,3.90
2023-01-31T01:08:53.015Z,3.80
2023-01-31T01:13:55.589Z,3.80
2023-01-31T01:18:57.596Z,3.90
2023-01-31T01:24:01.072Z,3.90
2023-01-31T01:29:03.745Z,4.00
2023-01-31T01:34:13.801Z,4.00
2023-01-31T01:39:16.610Z,4.10
2023-01-31T01:44:42.648Z,4.00
2023-01-31T01:49:59.423Z,3.90
2023-01-31T01:55:06.391Z,3.90
2023-01-31T02:00:19.316Z,3.90
2023-01-31T02:05:28.105Z,3.90
2023-01-31T02:10:34.474Z,3.90
2023-01-31T02:15:36.404Z,4.00
2023-01-31T02:20:50.167Z,4.00
2023-01-31T02:26:23.462Z,3.90
2023-01-31T02:31:43.061Z,3.80
2023-01-31T02:37:07.417Z,3.70
2023-01-31T02:42:29.050Z,3.70
2023-01-31T02:47:46.941Z,3.70
2023-01-31T02:52:52.651Z,3.70
2023-01-31T02:57:56.131Z,3.60
2023-01-31T03:02:57.963Z,3.60
2023-01-31T03:08:01.098Z,3.60
2023-01-31T03:13:20.725Z,3.60
2023-01-31T03:18:31.091Z,3.50
2023-01-31T03:23:35.904Z,3.50
2023-01-31T03:28:42.142Z,3.50
2023-01-31T03:33:46.363Z,3.50
2023-01-31T03:39:30.038Z,3.40
2023-01-31T03:44:46.855Z,3.40
2023-01-31T03:49:50.662Z,3.40
2023-01-31T03:55:00.933Z,3.40
2023-01-31T04:00:06.631Z,3.50
2023-01-31T04:05:09.653Z,3.60
2023-01-31T04:10:16.484Z,3.60
2023-01-31T04:15:18.954Z,3.60
2023-01-31T04:20:20.948Z,3.70
2023-01-31T04:25:23.238Z,3.80
2023-01-31T04:30:25.190Z,3.80
2023-01-31T04:35:29.800Z,3.80
2023-01-31T04:40:31.803Z,3.70
2023-01-31T04:45:33.677Z,3.50
2023-01-31T04:50:35.644Z,3.40
2023-01-31T04:55:37.471Z,3.40
2023-01-31T05:00:39.348Z,3.50
2023-01-31T05:05:41.174Z,3.70
2023-01-31T05:10:43.811Z,3.70
2023-01-31T05:15:48.361Z,3.70
2023-01-31T05:20:50.290Z,3.70
2023-01-31T05:25:52.102Z,3.70
2023-01-31T05:30:54.105Z,3.70
2023-01-31T05:35:56.286Z,3.60
2023-01-31T05:40:58.184Z,3.60
2023-01-31T05:46:00.031Z,3.70
2023-01-31T05:51:02.267Z,3.70
2023-01-31T05:56:04.242Z,3.70
2023-01-31T06:01:06.044Z,3.60
2023-01-31T06:06:07.896Z,3.60
2023-01-31T06:11:11.343Z,3.60
2023-01-31T06:16:13.183Z,3.70
2023-01-31T06:21:16.386Z,3.70
2023-01-31T06:26:18.275Z,3.70
2023-01-31T06:31:20.193Z,3.60
2023-01-31T06:36:22.039Z,3.60
2023-01-31T06:41:24.071Z,3.60
2023-01-31T06:46:25.929Z,3.60
2023-01-31T06:51:27.911Z,3.60
2023-01-31T06:56:30.414Z,3.60
2023-01-31T07:01:32.737Z,3.60
2023-01-31T07:06:34.692Z,3.50
2023-01-31T07:11:37.873Z,3.40
2023-01-31T07:16:39.669Z,3.50
2023-01-31T07:21:42.267Z,3.50
2023-01-31T07:26:44.129Z,3.60
2023-01-31T07:31:46.089Z,3.40
2023-01-31T07:36:47.912Z,3.30
2023-01-31T07:41:50.336Z,3.20
2023-01-31T07:46:54.659Z,3.10
2023-01-31T07:51:56.467Z,3.20
2023-01-31T07:56:58.254Z,3.30
2023-01-31T08:02:18.548Z,3.40
2023-01-31T08:07:20.352Z,3.80
2023-01-31T08:12:22.566Z,4.00
2023-01-31T08:17:24.409Z,4.20
2023-01-31T08:22:26.334Z,4.30
2023-01-31T08:27:28.124Z,4.40
2023-01-31T08:32:30.458Z,4.50
2023-01-31T08:37:33.896Z,4.60
2023-01-31T08:42:35.815Z,4.60
2023-01-31T08:47:38.839Z,4.70
2023-01-31T08:52:41.363Z,4.80
2023-01-31T08:57:58.015Z,4.90
2023-01-31T09:03:01.460Z,5.00
2023-01-31T09:08:03.304Z,5.10
2023-01-31T09:13:05.366Z,5.10
2023-01-31T09:18:07.354Z,5.20
2023-01-31T09:23:09.277Z,5.10
2023-01-31T09:28:11.083Z,5.20
2023-01-31T09:33:12.931Z,5.20
2023-01-31T09:38:14.730Z,5.20
2023-01-31T09:43:18.025Z,5.10
2023-01-31T09:48:22.860Z,5.10
2023-01-31T09:53:30.266Z,5.10
2023-01-31T09:58:48.496Z,5.20
2023-01-31T10:04:22.660Z,5.30
2023-01-31T10:09:34.039Z,5.30
2023-01-31T10:14:43.740Z,5.40
2023-01-31T10:19:51.413Z,5.30
2023-01-31T10:24:59.578Z,5.30
2023-01-31T10:30:03.775Z,5.30
2023-01-31T10:35:15.399Z,5.30
2023-01-31T10:40:22.416Z,5.40
2023-01-31T10:45:34.067Z,5.40
2023-01-31T10:50:48.668Z,5.50
2023-01-31T10:56:28.350Z,5.50
2023-01-31T11:01:30.388Z,5.50
2023-01-31T11:06:32.295Z,5.50
2023-01-31T11:11:53.625Z,5.60
2023-01-31T11:17:01.320Z,5.70
2023-01-31T11:22:03.739Z,5.70
2023-01-31T11:27:07.067Z,5.70
2023-01-31T11:32:20.671Z,5.70
2023-01-31T11:37:22.509Z,5.80
2023-01-31T11:42:24.711Z,5.90
2023-01-31T11:47:47.610Z,6.10
2023-01-31T11:52:57.739Z,6.10
2023-01-31T11:58:01.487Z,6.20
2023-01-31T12:03:08.889Z,6.20
2023-01-31T12:08:41.831Z,6.30
2023-01-31T12:13:52.335Z,6.30
2023-01-31T12:19:03.170Z,6.30
2023-01-31T12:24:20.316Z,6.30
2023-01-31T12:29:57.748Z,6.40
2023-01-31T12:35:08.872Z,6.40
2023-01-31T12:40:30.912Z,6.40
2023-01-31T12:45:38.996Z,6.40
2023-01-31T12:50:43.478Z,6.40
2023-01-31T12:56:21.585Z,6.40
2023-01-31T13:01:59.931Z,6.30
2023-01-31T13:07:09.836Z,6.20
2023-01-31T13:12:15.770Z,6.30
2023-01-31T13:17:23.805Z,6.30
2023-01-31T13:22:48.808Z,6.20
2023-01-31T13:28:00.520Z,6.20
2023-01-31T13:33:28.575Z,6.20
2023-01-31T13:38:40.109Z,6.20
2023-01-31T13:43:41.978Z,6.20
2023-01-31T13:49:14.006Z,6.20
2023-01-31T13:54:25.284Z,6.20
2023-01-31T13:59:29.959Z,6.20
2023-01-31T14:04:34.946Z,6.10
2023-01-31T14:10:06.607Z,6.10
2023-01-31T14:15:46.211Z,6.00
2023-01-31T14:20:48.083Z,6.00
2023-01-31T14:25:49.877Z,6.00
2023-01-31T14:30:51.909Z,6.00
2023-01-31T14:36:18.588Z,6.00
2023-01-31T14:41:34.655Z,5.90
2023-01-31T14:47:07.875Z,5.80
2023-01-31T14:52:56.062Z,5.70
2023-01-31T14:58:01.042Z,5.50
2023-01-31T15:03:28.519Z,5.40
2023-01-31T15:08:35.577Z,5.30
2023-01-31T15:13:53.942Z,5.30
2023-01-31T15:19:20.140Z,5.20
2023-01-31T15:25:02.243Z,5.20
2023-01-31T15:30:09.396Z,5.10
2023-01-31T15:35:22.657Z,5.10
2023-01-31T15:40:25.830Z,5.10
2023-01-31T15:45:30.027Z,5.00
2023-01-31T15:50:33.783Z,4.90
2023-01-31T15:55:35.897Z,4.90
2023-01-31T16:00:38.310Z,4.70
2023-01-31T16:05:49.663Z,4.70
2023-01-31T16:10:51.499Z,4.70
2023-01-31T16:15:53.939Z,4.70
2023-01-31T16:20:57.081Z,4.70
2023-01-31T16:26:15.382Z,4.70
2023-01-31T16:31:19.212Z,4.70
2023-01-31T16:36:30.349Z,4.70
2023-01-31T16:41:42.926Z,4.60
2023-01-31T16:46:46.456Z,4.50
2023-01-31T16:51:48.805Z,4.50
2023-01-31T16:57:06.398Z,4.40
2023-01-31T17:02:08.233Z,4.40
2023-01-31T17:07:27.175Z,4.40
2023-01-31T17:12:30.672Z,4.40
2023-01-31T17:17:34.777Z,4.40
2023-01-31T17:22:36.601Z,4.40
2023-01-31T17:27:38.386Z,4.40
2023-01-31T17:32:42.123Z,4.40
2023-01-31T17:37:46.343Z,4.40
2023-01-31T17:42:48.261Z,4.40
2023-01-31T17:47:50.181Z,4.40
2023-01-31T17:52:52.967Z,4.50
2023-01-31T17:57:54.750Z,4.40
2023-01-31T18:02:58.201Z,4.30
2023-01-31T18:08:00.770Z,4.30
2023-01-31T18:13:02.592Z,4.30
2023-01-31T18:18:08.570Z,4.20
2023-01-31T18:23:11.002Z,4.30
2023-01-31T18:28:13.719Z,4.30
2023-01-31T18:33:15.713Z,4.30
2023-01-31T18:38:17.695Z,4.30
2023-01-31T18:43:20.418Z,4.30
2023-01-31T18:48:22.356Z,4.30
2023-01-31T18:53:24.139Z,4.30
2023-01-31T18:58:25.972Z,4.30
2023-01-31T19:03:28.021Z,4.30
2023-01-31T19:08:29.986Z,4.30
2023-01-31T19:13:40.112Z,4.30
2023-01-31T19:18:42.129Z,4.20
2023-01-31T19:23:44.308Z,4.20
2023-01-31T19:28:46.986Z,4.20
2023-01-31T19:33:50.268Z,4.30
2023-01-31T19:38:52.645Z,4.40
2023-01-31T19:43:56.297Z,4.40
2023-01-31T19:48:58.998Z,4.50
2023-01-31T19:54:02.852Z,4.40
2023-01-31T19:59:06.087Z,4.40
2023-01-31T20:04:08.139Z,4.50
2023-01-31T20:09:14.785Z,4.50
2023-01-31T20:14:17.666Z,4.40
2023-01-31T20:19:22.408Z,4.40
2023-01-31T20:24:24.679Z,4.50
2023-01-31T20:29:26.610Z,4.50
2023-01-31T20:34:29.479Z,4.50
2023-01-31T20:39:31.491Z,4.50
2023-01-31T20:44:33.562Z,4.50
2023-01-31T20:49:35.360Z,4.50
2023-01-31T20:54:37.209Z,4.40
2023-01-31T20:59:39.854Z,4.40
2023-01-31T21:04:41.924Z,4.40
2023-01-31T21:09:43.882Z,4.50
2023-01-31T21:14:45.693Z,4.50
2023-01-31T21:19:47.557Z,4.50
2023-01-31T21:24:49.346Z,4.50
2023-01-31T21:29:53.227Z,4.50
2023-01-31T21:34:55.006Z,4.50
2023-01-31T21:39:56.856Z,4.50
2023-01-31T21:44:58.888Z,4.50
2023-01-31T21:50:00.738Z,4.50
2023-01-31T21:55:02.546Z,4.40
2023-01-31T22:00:06.199Z,4.40
2023-01-31T22:05:09.090Z,4.40
2023-01-31T22:10:11.299Z,4.40
2023-01-31T22:15:13.322Z,4.40
2023-01-31T22:20:15.880Z,4.40
2023-01-31T22:25:17.743Z,4.30
2023-01-31T22:30:19.752Z,4.30
2023-01-31T22:35:21.626Z,4.20
2023-01-31T22:40:23.957Z,4.10
2023-01-31T22:45:25.896Z,4.10
2023-01-31T22:50:27.720Z,4.10
2023-01-31T22:55:29.554Z,4.00
2023-01-31T23:00:31.438Z,4.10
2023-01-31T23:05:34.961Z,4.00
2023-01-31T23:10:38.273Z,4.00
2023-01-31T23:15:40.594Z,4.00
2023-01-31T23:20:42.551Z,4.00
2023-01-31T23:25:44.385Z,3.90
2023-01-31T23:30:47.381Z,3.90
2023-01-31T23:35:53.173Z,3.90
2023-01-31T23:40:55.257Z,3.90
2023-01-31T23:45:57.115Z,3.90
2023-01-31T23:51:05.394Z,4.00
2023-01-31T23:56:07.390Z,4.00
